Ada, MN

4:08 PM CDT on September 01, 2014 (GMT -0500)
Hector International | Change Station
CLOSE
Current Station
Airport
Location: Fargo,
Elevation: 899 ft
Nearby Weather Stations
Active Advisory: Special Statement

Elev 899 ft 46.91 °N, 96.81 °W | Updated 15 minutes ago

Partly Cloudy
Partly Cloudy
77 °F
Feels Like 77 °F
N
14
Wind Variable Wind from WSW

Today
High -- | Low -- °F
--% Chance of Precip.
Yesterday
High -- | Low -- °F
Precip. -- in
6:45 AM 8:06 PM
Waxing Crescent, 44% visible
Pressure 29.71 in
Visibility 10.0 miles
Clouds Few 5500 ft
Dew Point 53 °F
Humidity 43%
Rainfall 0.00 in
Snow Depth Not available.
UV 5 out of 12
Pollen 9.30 out of 12
Air Quality Not available.
Flu Activity Not available.
METAR KFAR 012053Z 25012KT 10SM FEW055 25/12 A2971 RMK AO2 SLP059 T02500117 58010

More Conditions Fewer Conditions

Pressure 29.71 in
Visibility 10.0 miles
Clouds Few 5500 ft
Dew Point 53 °F
Humidity 43%
Rainfall 0.00 in
Snow Depth Not available.
UV 5 out of 12
Pollen 9.30 out of 12
Air Quality Not available.
Flu Activity Not available.
METAR KFAR 012053Z 25012KT 10SM FEW055 25/12 A2971 RMK AO2 SLP059 T02500117 58010

More Conditions Fewer Conditions

10-Day Weather Forecast

Almanac

Astronomy

Sep. 01, 2014 Rise Set
Actual Time 6:45 AM CDT 8:06 PM CDT
Civil Twilight 6:13 AM CDT 8:37 PM CDT
Nautical Twilight 5:34 AM CDT 9:15 PM CDT
Astronomical Twilight 4:53 AM CDT 9:56 PM CDT
Moon 1:59 PM CDT 11:40 PM CDT
Length of Visible Light 14h 24m
Length of Day
13h 20m
Tomorrow will be 3m 18s shorter.
Waxing Crescent, 44% of the Moon is Illuminated
Today
Waxing Crescent
Sep 2
First Quarter
Sep 8
Full
Sep 15
Last Quarter
Sep 24
New

Today's Extremes

State Highs State Lows

Community

WunderPhotos

Upload Photos

1,749,407 photos uploaded!

WunderBlogs® & News

Nearby

Snow Depth

Station Depth Elevation
No new snow has been reported.

Earthquake Activity

City Distance Mag. Time & Date
No recent earthquake activity has been reported nearby.
Minimum magnitude displayed is 2.5.

Coastal Water Temperatures

Place Temperature
No Stations Reporting

Nearby Weather Stations